AirNav   Air Wisconsin Up To $57,000 Bonus
 
 1010 users online  

6PN6 Henke Heliport
Pittsburgh, Pennsylvania, USA

GOING TO PITTSBURGH?


FAA INFORMATION EFFECTIVE 07 NOVEMBER 2019

Location

FAA Identifier: 6PN6
Lat/Long: 40-23-00.0000N 080-18-00.0000W
40-23.000000N 080-18.000000W
40.3833333,-80.3000000
(estimated)
Elevation: 1255 ft. / 383 m (estimated)
From city: 2 miles SE of PITTSBURGH, PA
Time zone: UTC -5 (UTC -4 during Daylight Saving Time)
Zip code: 15019

Heliport Operations

Heliport use: Private use. Permission required prior to landing
Activation date: 09/2004
Control tower: no
ARTCC: CLEVELAND CENTER
FSS: ALTOONA FLIGHT SERVICE STATION
Attendance: UNATNDD
Wind indicator: yes
Segmented circle: no
Lights: FOR PERIMETER LGTS CALL 724-796-5944.

Heliport Communications

WX ASOS at PIT (7 nm NE): PHONE 412-472-0145
WX AWOS-A at 42PN (14 nm E): PHONE 412-442-2213
WX AWOS-3PT at AFJ (15 nm S): 119.175 (724-228-3529)
WX ASOS at AGC (17 nm E): PHONE 412-466-8968

Nearby radio navigation aids

VOR radial/distance  VOR name  Freq  Var
AGCr307/13.4ALLEGHENY VOR/DME110.0009W
HLGr066/14.3WHEELING VOR/DME112.2007W
EWCr197/26.8ELLWOOD CITY VOR/DME115.8008W
AIRr054/32.3BELLAIRE VOR/DME117.1007W

 
NDB name  Hdg/Dist  Freq  Var  ID
CADIZ082/33.823907WCFX -.-. ..-. -..-
CASTLE181/38.727209WUCP ..- -.-. .--.

Heliport Services

Runway Information

Helipad H1

Dimensions: 33 x 33 ft. / 10 x 10 m
Surface: concrete
Traffic pattern: leftleft

Heliport Ownership and Management from official FAA records

Ownership: Privately-owned
Owner: JACOB HENKE
1146 VALLEY VIEW RD
BULGER, PA 15019
Phone 724-796-5944
Manager: JACOB HENKE
1146 VALLEY VIEW RD
BULGER, PA 15019
Phone 724-796-5944
JOANNE HENKE

Heliport Operational Statistics

Aircraft based on the field: 1
Helicopters: 1
    

Additional Remarks

HELIPAD CIRCULAR IN SHAPE.
FOR CD CTC PITTSBURGH APCH AT 412-472-5591

Instrument Procedures

There are no published instrument procedures at 6PN6.

Some nearby airports with instrument procedures:

KPIT - Pittsburgh International Airport (7 nm NE)
KAFJ - Washington County Airport (15 nm S)
G05 - Finleyville Airpark (16 nm SE)
KAGC - Allegheny County Airport (17 nm E)
2G2 - Jefferson County Airpark (18 nm W)
 
Loc | Ops | Rwys | IFR | FBO | Links
Com | Nav | Svcs | Stats | Notes
Area around 6PN6 (Henke Heliport)
 
Road maps at: MapQuest Bing Google
 
Aerial photo
No photo
 
Sectional chart

 
Airport distance calculator
Flying to Henke Heliport? Find the distance to fly.

From to 6PN6

Sunrise and sunset
Times for 19-Nov-2019
 Local
(UTC-5)
 Zulu
(UTC)
Morning civil twilight06:4311:43
Sunrise07:1312:13
Sunset17:0022:00
Evening civil twilight17:3022:30

Current date and time
Zulu (UTC)  20-Nov-2019 01:41:48
Local (UTC-5)  19-Nov-2019 20:41:48
 
METAR
KPIT 
7nm N 
200051Z 36003KT 2 1/2SM BR FEW008 SCT013 OVC027 04/03 A2988 RMK AO2 SLP135 T00440028
KAFJ 
16nm S 
200112Z AUTO 00000KT 9SM SCT020 BKN028 OVC034 04/02 A2992 RMK AO2 PWINO
KAGC 
18nm E 
200113Z 00000KT 2SM BR BKN024 OVC030 04/03 A2988 RMK AO2 T00440033
TAF
KPIT 
7nm N 
192100Z 1921/2024 23002KT 2SM BR OVC015 FM200000 23002KT P6SM OVC035 FM200500 29004KT P6SM OVC015 TEMPO 2010/2012 5SM BR BKN008 FM201300 VRB03KT P6SM OVC035
KAGC 
18nm E 
192108Z 1921/2018 23002KT 3SM BR OVC015 FM201000 29004KT 5SM BR OVC007 FM201500 30006KT P6SM OVC015
NOTAMs
Click for the latest NOTAMs
NOTAMs are issued by the DoD/FAA and will open in a separate window not controlled by AirNav.

 

 
 

Would you like to see your business listed on this page?

 If your business provides an interesting product or service to pilots, flight crews, aircraft, or users of the Henke Heliport, you should consider listing it here.  To start the listing process, click on the button below
 
Add a business
 

Other Pages about Henke Heliport

Update a link
 
Copyright © AirNav, LLC. All rights reserved. Privacy Policy  Contact